createdAt,value
2018-01-25T00:01:47.209Z,20.60
2018-01-25T00:04:14.812Z,20.10
2018-01-25T00:06:42.671Z,22.17
2018-01-25T00:09:10.372Z,19.70
2018-01-25T00:11:37.956Z,21.37
2018-01-25T00:14:05.494Z,20.73
2018-01-25T00:16:33.122Z,19.90
2018-01-25T00:19:00.711Z,19.77
2018-01-25T00:21:28.267Z,19.97
2018-01-25T00:23:55.862Z,20.43
2018-01-25T00:26:23.470Z,22.73
2018-01-25T00:28:51.035Z,22.47
2018-01-25T00:31:18.612Z,21.00
2018-01-25T00:33:46.345Z,21.47
2018-01-25T00:36:13.894Z,20.50
2018-01-25T00:38:41.571Z,21.10
2018-01-25T00:41:09.097Z,20.60
2018-01-25T00:43:37.438Z,20.93
2018-01-25T00:46:05.099Z,20.80
2018-01-25T00:48:32.715Z,20.73
2018-01-25T00:51:01.951Z,20.80
2018-01-25T00:53:30.356Z,22.00
2018-01-25T00:55:57.930Z,20.83
2018-01-25T00:58:25.521Z,20.10
2018-01-25T01:00:53.077Z,20.20
2018-01-25T01:03:20.619Z,20.33
2018-01-25T01:05:48.231Z,19.43
2018-01-25T01:08:15.848Z,19.57
2018-01-25T01:10:43.422Z,19.60
2018-01-25T01:13:11.040Z,20.80
2018-01-25T01:15:39.167Z,21.10
2018-01-25T01:18:06.809Z,20.80
2018-01-25T01:20:34.385Z,19.33
2018-01-25T01:23:02.015Z,19.57
2018-01-25T01:25:29.597Z,19.10
2018-01-25T01:27:57.171Z,19.33
2018-01-25T01:30:24.714Z,18.13
2018-01-25T01:32:52.284Z,19.87
2018-01-25T01:35:19.843Z,18.90
2018-01-25T01:37:47.364Z,21.20
2018-01-25T01:40:15.762Z,18.90
2018-01-25T01:42:43.333Z,20.70
2018-01-25T01:45:10.942Z,20.30
2018-01-25T01:47:38.596Z,19.40
2018-01-25T01:50:06.225Z,21.07
2018-01-25T01:52:33.763Z,20.80
2018-01-25T01:55:01.310Z,19.97
2018-01-25T01:57:29.664Z,20.60
2018-01-25T01:59:57.257Z,22.27
2018-01-25T02:02:24.871Z,22.33
2018-01-25T02:04:52.483Z,21.90
2018-01-25T02:07:20.040Z,21.27
2018-01-25T02:09:48.344Z,23.20
2018-01-25T02:12:15.929Z,23.80
2018-01-25T02:14:43.574Z,24.17
2018-01-25T02:17:11.124Z,21.70
2018-01-25T02:19:38.788Z,23.90
2018-01-25T02:22:06.376Z,23.17
2018-01-25T02:24:33.974Z,23.73
2018-01-25T02:27:02.335Z,22.73
2018-01-25T02:29:29.924Z,23.50
2018-01-25T02:31:57.547Z,24.80
2018-01-25T02:34:25.119Z,25.50
2018-01-25T02:36:52.715Z,24.33
2018-01-25T02:39:20.321Z,27.10
2018-01-25T02:41:47.873Z,26.13
2018-01-25T02:44:15.422Z,25.43
2018-01-25T02:46:43.144Z,26.43
2018-01-25T02:49:10.736Z,26.20
2018-01-25T02:51:38.275Z,25.97
2018-01-25T02:54:06.591Z,27.07
2018-01-25T02:56:34.147Z,27.80
2018-01-25T02:59:01.762Z,26.80
2018-01-25T03:01:29.294Z,26.27
2018-01-25T03:03:56.892Z,28.63
2018-01-25T03:06:24.490Z,27.20
2018-01-25T03:08:52.054Z,29.53
2018-01-25T03:11:19.628Z,28.83
2018-01-25T03:13:47.185Z,28.47
2018-01-25T03:16:15.588Z,29.63
2018-01-25T03:18:44.092Z,28.57
2018-01-25T03:21:12.423Z,27.40
2018-01-25T03:23:40.052Z,29.83
2018-01-25T03:26:07.648Z,30.63
2018-01-25T03:28:35.243Z,28.10
2018-01-25T03:31:02.859Z,28.47
2018-01-25T03:33:31.301Z,28.37
2018-01-25T03:35:58.874Z,27.97
2018-01-25T03:38:26.508Z,28.33
2018-01-25T03:40:54.129Z,27.53
2018-01-25T03:43:21.783Z,29.30
2018-01-25T03:45:49.331Z,29.30
2018-01-25T03:48:16.916Z,28.97
2018-01-25T03:50:44.582Z,29.47
2018-01-25T03:53:12.102Z,29.13
2018-01-25T03:55:39.706Z,30.03
2018-01-25T03:58:07.275Z,29.07
2018-01-25T04:00:35.618Z,29.23
2018-01-25T04:03:03.950Z,28.80
2018-01-25T04:05:32.436Z,31.73
2018-01-25T04:08:00.419Z,30.30
2018-01-25T04:10:28.002Z,30.43
2018-01-25T04:12:56.586Z,30.80
2018-01-25T04:15:24.115Z,31.23
2018-01-25T04:17:52.615Z,29.43
2018-01-25T04:20:20.202Z,30.30
2018-01-25T04:22:47.763Z,32.07
2018-01-25T04:25:15.819Z,29.20
2018-01-25T04:27:43.362Z,30.10
2018-01-25T04:30:10.928Z,31.97
2018-01-25T04:32:39.251Z,31.30
2018-01-25T04:35:07.820Z,30.60
2018-01-25T04:37:35.406Z,31.40
2018-01-25T04:40:03.871Z,32.13
2018-01-25T04:42:31.521Z,32.47
2018-01-25T04:44:59.042Z,30.17
2018-01-25T04:47:26.653Z,29.27
2018-01-25T04:49:54.227Z,34.17
2018-01-25T04:52:22.560Z,31.20
2018-01-25T04:54:50.140Z,32.57
2018-01-25T04:57:17.781Z,32.03
2018-01-25T04:59:45.439Z,33.50
2018-01-25T05:02:12.987Z,31.97
2018-01-25T05:04:40.528Z,32.83
2018-01-25T05:07:08.079Z,31.40
2018-01-25T05:09:35.637Z,33.53
2018-01-25T05:12:03.232Z,31.87
2018-01-25T05:14:31.558Z,32.03
2018-01-25T05:17:04.561Z,32.60
2018-01-25T05:19:32.898Z,31.97
2018-01-25T05:22:00.498Z,32.70
2018-01-25T05:24:28.111Z,35.77
2018-01-25T05:26:55.662Z,34.13
2018-01-25T05:29:23.301Z,33.90
2018-01-25T05:31:50.982Z,34.40
2018-01-25T05:34:19.461Z,35.80
2018-01-25T05:36:47.099Z,34.17
2018-01-25T05:39:15.174Z,33.30
2018-01-25T05:41:42.773Z,35.83
2018-01-25T05:44:10.383Z,34.87
2018-01-25T05:46:37.950Z,34.57
2018-01-25T05:49:05.490Z,35.70
2018-01-25T05:51:33.090Z,36.03
2018-01-25T05:54:00.651Z,34.00
2018-01-25T05:56:28.235Z,33.60
2018-01-25T05:58:55.921Z,33.87
2018-01-25T06:01:23.598Z,35.50
2018-01-25T06:03:51.181Z,34.83
2018-01-25T06:06:18.714Z,35.00
2018-01-25T06:08:47.098Z,35.00
2018-01-25T06:11:15.854Z,35.00
2018-01-25T06:13:44.159Z,35.57
2018-01-25T06:16:11.750Z,35.13
2018-01-25T06:18:39.408Z,35.03
2018-01-25T06:21:07.694Z,35.63
2018-01-25T06:23:35.241Z,35.53
2018-01-25T06:26:02.817Z,37.03
2018-01-25T06:28:30.379Z,38.33
2018-01-25T06:30:57.900Z,36.17
2018-01-25T06:33:27.004Z,35.93
2018-01-25T06:35:56.051Z,35.43
2018-01-25T06:38:23.611Z,35.33
2018-01-25T06:40:51.229Z,35.70
2018-01-25T06:43:18.793Z,35.73
2018-01-25T06:45:46.994Z,36.50
2018-01-25T06:48:15.531Z,39.37
2018-01-25T06:50:43.229Z,36.07
2018-01-25T06:53:10.806Z,35.77
2018-01-25T06:55:38.334Z,37.57
2018-01-25T06:58:05.978Z,38.13
2018-01-25T07:00:33.535Z,37.00
2018-01-25T07:03:01.112Z,35.30
2018-01-25T07:05:28.659Z,36.37
2018-01-25T07:07:56.602Z,33.73
2018-01-25T07:10:24.145Z,37.10
2018-01-25T07:12:52.498Z,36.20
2018-01-25T07:15:20.104Z,35.57
2018-01-25T07:17:47.694Z,37.10
2018-01-25T07:20:15.234Z,35.50
2018-01-25T07:22:43.577Z,34.70
2018-01-25T07:25:11.163Z,36.20
2018-01-25T07:27:38.762Z,36.17
2018-01-25T07:30:06.725Z,36.43
2018-01-25T07:32:34.261Z,36.10
2018-01-25T07:35:02.642Z,36.97
2018-01-25T07:37:30.258Z,37.90
2018-01-25T07:39:57.809Z,38.47
2018-01-25T07:42:25.437Z,37.37
2018-01-25T07:44:53.735Z,35.27
2018-01-25T07:47:21.340Z,36.13
2018-01-25T07:49:48.927Z,34.97
2018-01-25T07:52:17.351Z,38.63
2018-01-25T07:54:45.495Z,33.70
2018-01-25T07:57:18.613Z,36.90
2018-01-25T07:59:46.363Z,38.10
2018-01-25T08:02:13.942Z,37.83
2018-01-25T08:04:41.655Z,37.27
2018-01-25T08:07:09.330Z,37.30
2018-01-25T08:09:36.936Z,38.30
2018-01-25T08:12:04.583Z,38.10
2018-01-25T08:14:32.214Z,36.50
2018-01-25T08:16:59.865Z,36.10
2018-01-25T08:19:28.241Z,36.73
2018-01-25T08:21:55.930Z,35.83
2018-01-25T08:24:23.433Z,35.70
2018-01-25T08:26:51.042Z,37.20
2018-01-25T08:29:18.638Z,37.40
2018-01-25T08:31:46.254Z,37.60
2018-01-25T08:34:14.667Z,37.43
2018-01-25T08:36:43.267Z,36.00
2018-01-25T08:39:10.853Z,38.33
2018-01-25T08:41:38.464Z,37.30
2018-01-25T08:44:06.177Z,37.90
2018-01-25T08:46:33.816Z,38.33
2018-01-25T08:49:01.568Z,36.70
2018-01-25T08:51:29.144Z,39.60
2018-01-25T08:53:56.788Z,37.27
2018-01-25T08:56:24.450Z,37.80
2018-01-25T08:58:52.155Z,37.90
2018-01-25T09:01:19.740Z,35.73
2018-01-25T09:03:47.292Z,39.13
2018-01-25T09:06:15.197Z,39.17
2018-01-25T09:08:42.802Z,37.67
2018-01-25T09:11:10.449Z,37.90
2018-01-25T09:13:38.074Z,35.30
2018-01-25T09:16:05.708Z,37.07
2018-01-25T09:18:34.120Z,37.03
2018-01-25T09:21:01.752Z,39.63
2018-01-25T09:23:30.292Z,37.70
2018-01-25T09:25:57.888Z,36.30
2018-01-25T09:28:26.249Z,36.37
2018-01-25T09:30:53.908Z,37.57
2018-01-25T09:33:21.579Z,36.40
2018-01-25T09:35:49.150Z,37.13
2018-01-25T09:38:16.912Z,35.43
2018-01-25T09:40:46.113Z,35.13
2018-01-25T09:43:13.664Z,32.70
2018-01-25T09:45:42.162Z,34.83
2018-01-25T09:48:10.514Z,37.43
2018-01-25T09:50:38.939Z,36.57
2018-01-25T09:53:06.614Z,35.03
2018-01-25T09:55:34.313Z,33.47
2018-01-25T09:58:01.902Z,34.37
2018-01-25T10:00:30.322Z,37.80
2018-01-25T10:02:58.102Z,37.93
2018-01-25T10:05:25.660Z,39.47
2018-01-25T10:07:53.250Z,35.90
2018-01-25T10:10:21.687Z,36.47
2018-01-25T10:12:49.369Z,36.40
2018-01-25T10:15:17.246Z,36.83
2018-01-25T10:17:44.788Z,38.73
2018-01-25T10:20:12.542Z,38.33
2018-01-25T10:22:40.117Z,37.90
2018-01-25T10:25:07.805Z,37.57
2018-01-25T10:27:35.449Z,37.77
2018-01-25T10:30:03.239Z,39.00
2018-01-25T10:32:30.882Z,40.07
2018-01-25T10:34:58.543Z,38.70
2018-01-25T10:37:26.975Z,39.17
2018-01-25T10:39:54.649Z,38.83
2018-01-25T10:42:22.221Z,38.53
2018-01-25T10:44:49.788Z,39.87
2018-01-25T10:47:17.343Z,40.70
2018-01-25T10:49:45.042Z,40.97
2018-01-25T10:52:12.822Z,40.60
2018-01-25T10:54:41.251Z,40.50
2018-01-25T10:57:09.038Z,38.43
2018-01-25T10:59:36.690Z,40.07
2018-01-25T11:02:09.958Z,44.53
2018-01-25T11:04:37.542Z,42.40
2018-01-25T11:07:05.198Z,39.60
2018-01-25T11:09:32.779Z,39.63
2018-01-25T11:12:00.645Z,39.60
2018-01-25T11:14:28.238Z,38.70
2018-01-25T11:16:55.822Z,37.60
2018-01-25T11:19:23.403Z,38.23
2018-01-25T11:21:51.847Z,40.57
2018-01-25T11:24:20.184Z,38.90
2018-01-25T11:26:47.813Z,37.43
2018-01-25T11:29:15.897Z,40.20
2018-01-25T11:31:43.552Z,42.07
2018-01-25T11:34:11.125Z,43.40
2018-01-25T11:36:39.499Z,40.57
2018-01-25T11:39:07.096Z,42.90
2018-01-25T11:41:34.695Z,40.57
2018-01-25T11:44:02.273Z,40.30
2018-01-25T11:46:29.878Z,38.40
2018-01-25T11:48:57.553Z,39.17
2018-01-25T11:51:25.191Z,38.33
2018-01-25T11:53:52.991Z,38.10
2018-01-25T11:56:20.628Z,37.50
2018-01-25T11:58:48.241Z,38.83
2018-01-25T12:01:16.586Z,39.07
2018-01-25T12:03:44.911Z,37.80
2018-01-25T12:06:12.502Z,40.87
2018-01-25T12:08:40.047Z,37.30
2018-01-25T12:11:07.705Z,41.30
2018-01-25T12:13:35.289Z,46.43
2018-01-25T12:16:02.944Z,46.17
2018-01-25T12:18:30.534Z,40.90
2018-01-25T12:20:58.979Z,39.57
2018-01-25T12:23:26.609Z,38.33
2018-01-25T12:25:54.224Z,40.83
2018-01-25T12:28:22.576Z,36.33
2018-01-25T12:30:50.306Z,40.47
2018-01-25T12:33:17.993Z,39.97
2018-01-25T12:35:45.581Z,38.40
2018-01-25T12:38:13.182Z,41.80
2018-01-25T12:40:40.758Z,36.63
2018-01-25T12:43:09.146Z,36.80
2018-01-25T12:45:36.770Z,37.87
2018-01-25T12:48:04.621Z,35.90
2018-01-25T12:50:33.002Z,39.80
2018-01-25T12:53:01.418Z,39.27
2018-01-25T12:55:30.209Z,36.87
2018-01-25T12:57:57.867Z,38.83
2018-01-25T13:00:25.458Z,37.77
2018-01-25T13:02:53.100Z,36.40
2018-01-25T13:05:20.957Z,35.00
2018-01-25T13:07:48.549Z,37.37
2018-01-25T13:10:16.214Z,35.90
2018-01-25T13:12:43.777Z,34.03
2018-01-25T13:15:11.436Z,38.47
2018-01-25T13:17:39.815Z,37.80
2018-01-25T13:20:07.468Z,34.97
2018-01-25T13:22:35.219Z,36.20
2018-01-25T13:25:02.888Z,37.40
2018-01-25T13:27:30.494Z,35.60
2018-01-25T13:29:59.022Z,36.07
2018-01-25T13:32:26.789Z,32.87
2018-01-25T13:34:54.414Z,36.40
2018-01-25T13:37:22.020Z,40.25
2018-01-25T13:39:50.320Z,36.10
2018-01-25T13:42:18.042Z,46.93
2018-01-25T13:44:45.620Z,40.10
2018-01-25T13:47:13.215Z,37.60
2018-01-25T13:49:40.775Z,34.73
2018-01-25T13:52:08.484Z,37.80
2018-01-25T13:54:36.071Z,37.10
2018-01-25T13:57:04.044Z,35.83
2018-01-25T13:59:31.606Z,35.27
2018-01-25T14:01:59.173Z,35.70
2018-01-25T14:04:26.962Z,34.70
2018-01-25T14:06:55.974Z,35.40
2018-01-25T14:09:23.660Z,36.60
2018-01-25T14:11:51.214Z,34.90
2018-01-25T14:14:18.804Z,35.60
2018-01-25T14:16:46.458Z,36.90
2018-01-25T14:19:13.997Z,34.60
2018-01-25T14:21:41.612Z,35.80
2018-01-25T14:24:09.214Z,34.90
2018-01-25T14:26:36.984Z,36.30
2018-01-25T14:29:04.867Z,34.90
2018-01-25T14:31:33.061Z,35.17
2018-01-25T14:34:00.672Z,35.63
2018-01-25T14:36:28.302Z,33.17
2018-01-25T14:38:55.931Z,39.40
2018-01-25T14:41:23.644Z,38.70
2018-01-25T14:43:51.256Z,36.17
2018-01-25T14:46:18.834Z,35.80
2018-01-25T14:48:46.457Z,33.30
2018-01-25T14:51:14.108Z,33.97
2018-01-25T14:53:41.726Z,33.60
2018-01-25T14:56:10.213Z,33.83
2018-01-25T14:58:38.429Z,33.10
2018-01-25T15:01:06.004Z,36.90
2018-01-25T15:03:33.589Z,34.60
2018-01-25T15:06:01.170Z,36.17
2018-01-25T15:08:28.783Z,35.23
2018-01-25T15:10:56.341Z,34.80
2018-01-25T15:13:23.940Z,36.27
2018-01-25T15:15:51.538Z,33.43
2018-01-25T15:18:19.132Z,34.40
2018-01-25T15:20:46.838Z,34.57
2018-01-25T15:23:15.834Z,33.70
2018-01-25T15:25:49.758Z,36.93
2018-01-25T15:28:18.107Z,34.80
2018-01-25T15:30:45.672Z,32.37
2018-01-25T15:33:13.245Z,32.87
2018-01-25T15:35:41.673Z,33.00
2018-01-25T15:38:09.230Z,55.07
2018-01-25T15:40:36.777Z,49.90
2018-01-25T15:43:04.715Z,33.90
2018-01-25T15:45:32.284Z,32.97
2018-01-25T15:48:00.763Z,32.27
2018-01-25T15:50:29.137Z,31.80
2018-01-25T15:52:56.698Z,30.10
2018-01-25T15:55:24.265Z,31.33
2018-01-25T15:57:52.654Z,30.23
2018-01-25T16:00:20.237Z,31.20
2018-01-25T16:02:47.850Z,31.43
2018-01-25T16:05:16.522Z,28.70
2018-01-25T16:07:44.124Z,30.13
2018-01-25T16:10:11.705Z,28.70
2018-01-25T16:12:39.342Z,30.90
2018-01-25T16:15:08.265Z,30.50
2018-01-25T16:17:35.866Z,30.17
2018-01-25T16:20:04.158Z,31.57
2018-01-25T16:22:31.991Z,31.10
2018-01-25T16:24:59.540Z,30.17
2018-01-25T16:27:27.243Z,30.90
2018-01-25T16:29:54.886Z,31.13
2018-01-25T16:32:22.471Z,30.00
2018-01-25T16:34:50.186Z,31.43
2018-01-25T16:37:17.811Z,31.30
2018-01-25T16:39:45.507Z,30.03
2018-01-25T16:42:13.338Z,30.10
2018-01-25T16:44:40.954Z,30.10
2018-01-25T16:47:08.629Z,29.07
2018-01-25T16:49:36.276Z,29.10
2018-01-25T16:52:04.060Z,29.33
2018-01-25T16:54:31.713Z,30.80
2018-01-25T16:56:59.647Z,31.40
2018-01-25T16:59:27.278Z,31.30
2018-01-25T17:01:55.610Z,30.73
2018-01-25T17:04:23.664Z,29.30
2018-01-25T17:06:51.260Z,29.00
2018-01-25T17:09:19.007Z,31.07
2018-01-25T17:11:47.535Z,31.23
2018-01-25T17:14:15.950Z,30.27
2018-01-25T17:16:44.257Z,30.77
2018-01-25T17:19:12.839Z,30.60
2018-01-25T17:21:41.743Z,31.60
2018-01-25T17:24:10.996Z,30.60
2018-01-25T17:26:39.262Z,30.57
2018-01-25T17:29:07.257Z,29.37
2018-01-25T17:31:35.515Z,30.73
2018-01-25T17:34:03.150Z,31.40
2018-01-25T17:36:31.705Z,29.50
2018-01-25T17:39:00.412Z,30.40
2018-01-25T17:41:28.803Z,33.20
2018-01-25T17:43:57.192Z,32.10
2018-01-25T17:46:24.722Z,30.90
2018-01-25T17:48:52.343Z,31.33
2018-01-25T17:51:20.010Z,31.10
2018-01-25T17:53:48.326Z,30.27
2018-01-25T17:56:15.988Z,30.63
2018-01-25T17:58:44.508Z,30.80
2018-01-25T18:01:12.190Z,30.17
2018-01-25T18:03:39.822Z,29.40
2018-01-25T18:06:10.948Z,31.17
2018-01-25T18:08:39.934Z,30.80
2018-01-25T18:11:08.412Z,31.67
2018-01-25T18:13:36.098Z,31.77
2018-01-25T18:16:04.406Z,30.23
2018-01-25T18:18:33.512Z,30.10
2018-01-25T18:21:02.441Z,30.00
2018-01-25T18:23:30.822Z,29.93
2018-01-25T18:25:58.612Z,30.20
2018-01-25T18:28:26.389Z,30.13
2018-01-25T18:30:54.101Z,29.37
2018-01-25T18:33:22.417Z,31.10
2018-01-25T18:35:50.048Z,30.23
2018-01-25T18:38:20.508Z,28.97
2018-01-25T18:40:48.110Z,30.33
2018-01-25T18:43:16.418Z,28.27
2018-01-25T18:55:24.030Z,28.67
2018-01-25T18:57:51.561Z,30.80
2018-01-25T19:00:20.143Z,36.37
2018-01-25T19:02:47.661Z,33.33
2018-01-25T19:05:15.905Z,30.23
2018-01-25T19:07:43.452Z,26.23
2018-01-25T19:10:11.039Z,27.00
2018-01-25T19:12:39.011Z,27.40
2018-01-25T19:15:07.304Z,26.77
2018-01-25T19:17:34.880Z,25.33
2018-01-25T19:20:03.418Z,24.43
2018-01-25T19:22:31.032Z,24.77
2018-01-25T19:24:58.638Z,24.30
2018-01-25T19:27:26.214Z,25.73
2018-01-25T19:29:53.839Z,24.57
2018-01-25T19:32:21.431Z,23.50
2018-01-25T19:34:49.768Z,25.67
2018-01-25T19:37:17.375Z,26.47
2018-01-25T19:39:44.971Z,26.87
2018-01-25T19:42:12.595Z,24.70
2018-01-25T19:44:41.026Z,23.30
2018-01-25T19:47:09.421Z,24.13
2018-01-25T19:49:37.007Z,23.90
2018-01-25T19:52:04.546Z,24.63
2018-01-25T19:54:32.102Z,24.77
2018-01-25T19:56:59.681Z,25.40
2018-01-25T19:59:27.406Z,25.93
2018-01-25T20:01:55.932Z,25.23
2018-01-25T20:04:23.503Z,24.47
2018-01-25T20:06:51.479Z,27.50
2018-01-25T20:09:19.086Z,24.80
2018-01-25T20:11:47.589Z,25.73
2018-01-25T20:14:15.131Z,25.70
2018-01-25T20:16:43.266Z,25.73
2018-01-25T20:19:10.953Z,26.23
2018-01-25T20:21:39.231Z,27.77
2018-01-25T20:24:08.449Z,24.90
2018-01-25T20:26:36.185Z,26.90
2018-01-25T20:29:04.821Z,26.77
2018-01-25T20:31:33.642Z,28.60
2018-01-25T20:34:01.279Z,29.27
2018-01-25T20:36:29.463Z,27.10
2018-01-25T20:38:57.649Z,25.83
2018-01-25T20:41:25.209Z,29.23
2018-01-25T20:43:52.771Z,28.00
2018-01-25T20:46:20.359Z,28.80
2018-01-25T20:48:48.170Z,30.80
2018-01-25T20:51:17.368Z,29.30
2018-01-25T20:53:46.164Z,30.80
2018-01-25T20:56:13.711Z,28.57
2018-01-25T20:58:41.349Z,29.03
2018-01-25T21:01:08.931Z,30.20
2018-01-25T21:03:36.494Z,29.80
2018-01-25T21:06:04.554Z,30.83
2018-01-25T21:08:32.375Z,28.37
2018-01-25T21:10:59.974Z,30.03
2018-01-25T21:13:27.862Z,30.50
2018-01-25T21:15:55.472Z,28.63
2018-01-25T21:18:23.194Z,30.60
2018-01-25T21:20:50.824Z,27.00
2018-01-25T21:23:20.862Z,31.57
2018-01-25T21:25:48.402Z,29.37
2018-01-25T21:28:16.013Z,32.97
2018-01-25T21:30:43.600Z,29.90
2018-01-25T21:33:11.947Z,32.17
2018-01-25T21:35:40.280Z,31.70
2018-01-25T21:38:08.626Z,30.03
2018-01-25T21:40:36.239Z,32.07
2018-01-25T21:43:04.846Z,31.00
2018-01-25T21:45:32.394Z,30.03
2018-01-25T21:47:59.949Z,31.23
2018-01-25T21:50:27.491Z,31.67
2018-01-25T21:52:55.108Z,31.50
2018-01-25T21:55:22.662Z,30.53
2018-01-25T21:57:50.244Z,30.63
2018-01-25T22:00:17.913Z,30.50
2018-01-25T22:02:45.457Z,31.07
2018-01-25T22:05:13.680Z,30.63
2018-01-25T22:07:41.227Z,30.33
2018-01-25T22:10:09.264Z,31.37
2018-01-25T22:12:36.865Z,32.87
2018-01-25T22:15:04.488Z,31.57
2018-01-25T22:17:32.194Z,31.03
2018-01-25T22:19:59.790Z,29.53
2018-01-25T22:22:27.353Z,31.20
2018-01-25T22:24:54.919Z,32.23
2018-01-25T22:27:22.482Z,31.70
2018-01-25T22:29:50.003Z,32.77
2018-01-25T22:32:17.580Z,31.27
2018-01-25T22:34:45.157Z,31.80
2018-01-25T22:37:13.446Z,33.60
2018-01-25T22:39:41.012Z,30.70
2018-01-25T22:42:09.573Z,32.83
2018-01-25T22:44:37.159Z,32.87
2018-01-25T22:47:05.502Z,32.27
2018-01-25T22:49:33.091Z,31.20
2018-01-25T22:52:02.025Z,32.97
2018-01-25T22:54:29.626Z,29.53
2018-01-25T22:56:57.477Z,30.90
2018-01-25T22:59:25.106Z,32.40
2018-01-25T23:01:52.738Z,32.23
2018-01-25T23:04:20.280Z,33.10
2018-01-25T23:06:47.896Z,31.00
2018-01-25T23:09:15.475Z,32.70
2018-01-25T23:11:43.040Z,31.77
2018-01-25T23:14:10.649Z,32.70
2018-01-25T23:16:38.472Z,32.20
2018-01-25T23:19:06.048Z,30.43
2018-01-25T23:21:33.694Z,32.47
2018-01-25T23:24:01.289Z,32.97
2018-01-25T23:26:28.907Z,30.73
2018-01-25T23:28:56.486Z,31.00
2018-01-25T23:31:24.065Z,32.77
2018-01-25T23:33:51.701Z,31.93
2018-01-25T23:36:19.304Z,31.80
2018-01-25T23:38:46.870Z,30.13
2018-01-25T23:41:14.420Z,31.40
2018-01-25T23:43:42.116Z,31.87
2018-01-25T23:46:10.914Z,31.20
2018-01-25T23:48:38.507Z,32.13
2018-01-25T23:51:09.090Z,31.70
2018-01-25T23:53:36.635Z,30.37
2018-01-25T23:56:04.955Z,31.93
2018-01-25T23:58:33.277Z,29.67
